createdAt,value
2022-11-09T00:04:59.472Z,7.27
2022-11-09T00:10:21.270Z,7.17
2022-11-09T00:15:43.080Z,7.16
2022-11-09T00:21:10.447Z,7.14
2022-11-09T00:26:32.647Z,7.16
2022-11-09T00:31:54.441Z,7.15
2022-11-09T00:37:16.261Z,7.20
2022-11-09T00:42:38.103Z,7.16
2022-11-09T00:47:59.886Z,7.15
2022-11-09T00:53:22.772Z,7.14
2022-11-09T00:58:44.589Z,7.13
2022-11-09T01:04:06.422Z,7.14
2022-11-09T01:09:28.280Z,7.11
2022-11-09T01:14:50.233Z,7.09
2022-11-09T01:20:12.097Z,7.10
2022-11-09T01:25:34.166Z,7.15
2022-11-09T01:30:56.031Z,7.14
2022-11-09T01:36:21.138Z,7.14
2022-11-09T01:41:42.978Z,7.08
2022-11-09T01:47:11.678Z,7.08
2022-11-09T01:52:40.680Z,7.14
2022-11-09T01:58:07.492Z,7.22
2022-11-09T02:03:42.784Z,7.23
2022-11-09T02:09:42.085Z,7.25
2022-11-09T02:15:06.959Z,7.28
2022-11-09T02:20:28.829Z,7.27
2022-11-09T02:26:06.215Z,7.25
2022-11-09T02:31:33.594Z,7.22
2022-11-09T02:36:55.394Z,7.17
2022-11-09T02:42:21.453Z,7.26
2022-11-09T02:47:43.610Z,7.19
2022-11-09T02:53:05.458Z,7.19
2022-11-09T02:58:27.248Z,7.11
2022-11-09T03:03:49.090Z,7.08
2022-11-09T03:09:12.079Z,7.07
2022-11-09T03:14:33.853Z,7.01
2022-11-09T03:19:55.652Z,6.98
2022-11-09T03:25:17.559Z,6.92
2022-11-09T03:30:39.309Z,6.94
2022-11-09T03:36:01.468Z,6.95
2022-11-09T03:41:23.234Z,6.95
2022-11-09T03:46:45.060Z,7.00
2022-11-09T03:52:06.884Z,7.04
2022-11-09T03:57:28.656Z,7.02
2022-11-09T04:02:51.065Z,7.01
2022-11-09T04:08:12.851Z,7.00
2022-11-09T04:13:34.781Z,7.08
2022-11-09T04:18:56.727Z,6.99
2022-11-09T04:24:18.529Z,6.92
2022-11-09T04:29:40.340Z,6.77
2022-11-09T04:35:02.773Z,6.78
2022-11-09T04:40:27.544Z,6.72
2022-11-09T04:45:49.372Z,6.63
2022-11-09T04:51:11.522Z,6.62
2022-11-09T04:56:33.346Z,6.50
2022-11-09T05:01:55.134Z,6.48
2022-11-09T05:07:17.100Z,6.43
2022-11-09T05:12:42.232Z,6.41
2022-11-09T05:18:07.886Z,6.49
2022-11-09T05:23:29.695Z,6.47
2022-11-09T05:28:51.457Z,6.43
2022-11-09T05:34:13.751Z,6.39
2022-11-09T05:39:35.548Z,6.43
2022-11-09T05:44:57.319Z,6.58
2022-11-09T05:50:19.325Z,6.58
2022-11-09T05:55:41.206Z,6.60
2022-11-09T06:01:08.786Z,6.68
2022-11-09T06:06:30.581Z,6.95
2022-11-09T06:11:52.483Z,7.40
2022-11-09T06:17:14.657Z,7.38
2022-11-09T06:22:36.468Z,7.62
2022-11-09T06:27:59.494Z,7.64
2022-11-09T06:33:21.872Z,7.80
2022-11-09T06:38:44.014Z,7.73
2022-11-09T06:44:05.935Z,7.95
2022-11-09T06:49:27.704Z,8.13
2022-11-09T06:54:49.464Z,8.17
2022-11-09T07:00:11.967Z,8.73
2022-11-09T07:05:38.609Z,9.44
2022-11-09T07:11:05.751Z,9.03
2022-11-09T07:16:28.395Z,9.56
2022-11-09T07:21:50.155Z,10.07
2022-11-09T07:27:11.949Z,10.08
2022-11-09T07:38:27.951Z,10.00
2022-11-09T07:43:49.976Z,10.75
2022-11-09T07:49:25.643Z,10.74
2022-11-09T07:54:52.481Z,10.71
2022-11-09T08:00:19.871Z,10.46
2022-11-09T08:05:44.483Z,10.43
2022-11-09T08:11:06.555Z,11.42
2022-11-09T08:16:32.249Z,12.19
2022-11-09T08:22:03.147Z,13.27
2022-11-09T08:27:24.878Z,12.78
2022-11-09T08:32:48.097Z,14.31
2022-11-09T08:38:09.922Z,15.51
2022-11-09T08:43:32.050Z,14.30
2022-11-09T08:48:53.908Z,15.46
2022-11-09T08:54:15.670Z,16.97
2022-11-09T08:59:37.583Z,15.34
2022-11-09T09:05:00.117Z,15.55
2022-11-09T09:10:21.963Z,15.51
2022-11-09T09:15:43.747Z,15.53
2022-11-09T09:21:07.510Z,15.07
2022-11-09T09:26:29.327Z,15.32
2022-11-09T09:31:51.135Z,16.76
2022-11-09T09:37:13.024Z,16.77
2022-11-09T09:42:37.540Z,16.15
2022-11-09T09:48:09.117Z,14.88
2022-11-09T09:53:53.432Z,15.21
2022-11-09T09:59:20.242Z,14.45
2022-11-09T10:04:42.256Z,13.94
2022-11-09T10:10:39.322Z,13.67
2022-11-09T10:16:26.316Z,13.44
2022-11-09T10:21:50.842Z,13.39
2022-11-09T10:27:33.975Z,13.25
2022-11-09T10:33:19.632Z,13.08
2022-11-09T10:38:47.319Z,13.16
2022-11-09T10:44:17.297Z,13.18
2022-11-09T10:49:40.758Z,13.10
2022-11-09T10:55:24.313Z,13.22
2022-11-09T11:01:01.450Z,13.23
2022-11-09T11:06:23.180Z,13.30
2022-11-09T11:11:45.415Z,13.32
2022-11-09T11:17:25.201Z,13.30
2022-11-09T11:22:47.317Z,13.46
2022-11-09T11:28:19.963Z,13.76
2022-11-09T11:33:42.585Z,13.57
2022-11-09T11:39:29.496Z,13.68
2022-11-09T11:45:39.651Z,13.59
2022-11-09T11:51:32.191Z,13.80
2022-11-09T11:57:08.796Z,13.74
2022-11-09T12:02:53.220Z,13.28
2022-11-09T12:08:47.603Z,13.71
2022-11-09T12:14:43.348Z,14.08
2022-11-09T12:20:20.430Z,13.97
2022-11-09T12:25:53.091Z,14.19
2022-11-09T12:31:36.438Z,14.32
2022-11-09T12:37:03.055Z,14.22
2022-11-09T12:42:44.461Z,13.74
2022-11-09T12:48:24.180Z,13.90
2022-11-09T12:53:45.982Z,14.15
2022-11-09T12:59:27.305Z,14.05
2022-11-09T13:04:57.276Z,14.01
2022-11-09T13:10:25.143Z,13.96
2022-11-09T13:16:09.331Z,13.93
2022-11-09T13:21:34.665Z,13.87
2022-11-09T13:27:02.436Z,13.76
2022-11-09T13:32:27.522Z,13.70
2022-11-09T13:37:57.504Z,13.67
2022-11-09T13:43:32.728Z,13.61
2022-11-09T13:48:55.541Z,13.47
2022-11-09T13:54:38.111Z,13.38
2022-11-09T14:00:00.928Z,13.29
2022-11-09T14:05:33.773Z,13.22
2022-11-09T14:11:30.297Z,13.14
2022-11-09T14:17:06.770Z,13.07
2022-11-09T14:22:35.312Z,13.08
2022-11-09T14:27:57.408Z,13.01
2022-11-09T14:33:32.519Z,12.96
2022-11-09T14:38:55.230Z,12.96
2022-11-09T14:44:29.636Z,12.85
2022-11-09T14:49:51.796Z,12.70
2022-11-09T14:55:15.826Z,12.74
2022-11-09T15:00:41.847Z,12.70
2022-11-09T15:06:12.601Z,12.65
2022-11-09T15:11:37.591Z,12.58
2022-11-09T15:17:14.991Z,12.55
2022-11-09T15:22:57.976Z,12.47
2022-11-09T15:28:21.977Z,12.39
2022-11-09T15:33:52.019Z,12.35
2022-11-09T15:39:18.087Z,12.24
2022-11-09T15:44:39.964Z,12.09
2022-11-09T15:50:06.924Z,12.04
2022-11-09T15:55:28.792Z,11.97
2022-11-09T16:00:50.625Z,11.92
2022-11-09T16:06:16.327Z,11.88
2022-11-09T16:11:38.142Z,11.74
2022-11-09T16:16:59.978Z,11.72
2022-11-09T16:22:21.820Z,11.69
2022-11-09T16:27:50.032Z,11.60
2022-11-09T16:33:12.602Z,11.49
2022-11-09T16:38:40.626Z,11.41
2022-11-09T16:44:03.544Z,11.35
2022-11-09T16:49:25.331Z,11.25
2022-11-09T16:54:47.167Z,11.23
2022-11-09T17:00:09.602Z,11.23
2022-11-09T17:05:31.417Z,11.17
2022-11-09T17:10:53.394Z,11.12
2022-11-09T17:16:15.265Z,10.98
2022-11-09T17:21:37.120Z,10.92
2022-11-09T17:26:59.231Z,10.93
2022-11-09T17:32:21.138Z,10.87
2022-11-09T17:37:43.073Z,10.88
2022-11-09T17:43:05.630Z,10.89
2022-11-09T17:48:27.416Z,10.95
2022-11-09T17:53:49.233Z,10.84
2022-11-09T17:59:11.473Z,10.74
2022-11-09T18:04:33.306Z,10.69
2022-11-09T18:09:55.531Z,10.61
2022-11-09T18:15:17.496Z,10.53
2022-11-09T18:20:39.442Z,10.40
2022-11-09T18:26:02.739Z,10.25
2022-11-09T18:31:24.772Z,10.22
2022-11-09T18:36:46.718Z,10.16
2022-11-09T18:42:08.530Z,10.11
2022-11-09T18:47:30.312Z,10.09
2022-11-09T18:52:52.206Z,9.92
2022-11-09T18:58:14.164Z,9.83
2022-11-09T19:03:35.967Z,9.72
2022-11-09T19:08:57.752Z,9.66
2022-11-09T19:14:19.582Z,9.64
2022-11-09T19:19:42.160Z,9.42
2022-11-09T19:25:04.380Z,9.37
2022-11-09T19:30:26.157Z,9.34
2022-11-09T19:36:15.127Z,9.30
2022-11-09T19:41:33.739Z,9.16
2022-11-09T19:46:55.609Z,9.11
2022-11-09T19:52:17.399Z,9.03
2022-11-09T19:57:39.382Z,9.03
2022-11-09T20:03:01.806Z,8.93
2022-11-09T20:08:24.169Z,8.92
2022-11-09T20:13:46.112Z,8.91
2022-11-09T20:19:11.570Z,8.86
2022-11-09T20:24:33.386Z,8.71
2022-11-09T20:29:55.331Z,8.62
2022-11-09T20:35:17.372Z,8.54
2022-11-09T20:40:39.196Z,8.57
2022-11-09T20:46:07.300Z,8.45
2022-11-09T20:51:29.168Z,8.43
2022-11-09T20:56:51.028Z,8.39
2022-11-09T21:02:15.764Z,8.35
2022-11-09T21:07:37.795Z,8.28
2022-11-09T21:12:59.583Z,8.25
2022-11-09T21:18:21.608Z,8.18
2022-11-09T21:23:44.629Z,8.14
2022-11-09T21:29:10.216Z,8.03
2022-11-09T21:34:36.540Z,7.95
2022-11-09T21:39:59.265Z,8.01
2022-11-09T21:45:21.129Z,7.95
2022-11-09T21:50:43.069Z,7.82
2022-11-09T21:56:05.471Z,7.83
2022-11-09T22:01:27.329Z,7.68
2022-11-09T22:06:49.195Z,7.67
2022-11-09T22:12:11.120Z,7.66
2022-11-09T22:17:32.934Z,7.57
2022-11-09T22:22:54.784Z,7.53
2022-11-09T22:28:16.640Z,7.43
2022-11-09T22:33:38.487Z,7.43
2022-11-09T22:39:00.327Z,7.34
2022-11-09T22:44:22.180Z,7.17
2022-11-09T22:49:44.014Z,7.21
2022-11-09T22:55:06.372Z,7.13
2022-11-09T23:00:28.311Z,7.06
2022-11-09T23:05:50.086Z,7.02
2022-11-09T23:11:15.929Z,6.98
2022-11-09T23:16:37.741Z,7.02
2022-11-09T23:21:59.503Z,7.02
2022-11-09T23:27:21.356Z,7.08
2022-11-09T23:32:43.198Z,6.98
2022-11-09T23:38:05.997Z,6.92
2022-11-09T23:43:27.793Z,6.97
2022-11-09T23:48:49.562Z,7.01
2022-11-09T23:54:11.446Z,7.08
2022-11-09T23:59:33.318Z,7.08
